sensor_id;sensor_type;location;lat;lon;timestamp;temperature;humidity
68867;SHT30;56451;44.804;20.476;2023-03-24T00:00:00;17.74;40.46
68867;SHT30;56451;44.804;20.476;2023-03-24T00:02:28;17.73;40.55
68867;SHT30;56451;44.804;20.476;2023-03-24T00:04:54;17.64;40.71
68867;SHT30;56451;44.804;20.476;2023-03-24T00:07:24;17.60;40.82
68867;SHT30;56451;44.804;20.476;2023-03-24T00:09:50;17.60;40.81
68867;SHT30;56451;44.804;20.476;2023-03-24T00:12:16;17.59;40.95
68867;SHT30;56451;44.804;20.476;2023-03-24T00:14:45;17.54;40.96
68867;SHT30;56451;44.804;20.476;2023-03-24T00:17:11;17.53;40.92
68867;SHT30;56451;44.804;20.476;2023-03-24T00:19:39;17.51;40.99
68867;SHT30;56451;44.804;20.476;2023-03-24T00:22:06;17.51;40.96
68867;SHT30;56451;44.804;20.476;2023-03-24T00:24:33;17.50;40.96
68867;SHT30;56451;44.804;20.476;2023-03-24T00:26:59;17.47;40.97
68867;SHT30;56451;44.804;20.476;2023-03-24T00:29:28;17.46;40.97
68867;SHT30;56451;44.804;20.476;2023-03-24T00:31:54;17.43;41.14
68867;SHT30;56451;44.804;20.476;2023-03-24T00:34:20;17.43;41.09
68867;SHT30;56451;44.804;20.476;2023-03-24T00:36:47;17.43;41.13
68867;SHT30;56451;44.804;20.476;2023-03-24T00:39:14;17.42;41.02
68867;SHT30;56451;44.804;20.476;2023-03-24T00:41:43;17.39;41.09
68867;SHT30;56451;44.804;20.476;2023-03-24T00:44:11;17.39;41.08
68867;SHT30;56451;44.804;20.476;2023-03-24T00:46:49;17.34;41.05
68867;SHT30;56451;44.804;20.476;2023-03-24T00:49:27;17.33;41.16
68867;SHT30;56451;44.804;20.476;2023-03-24T00:52:12;17.30;41.28
68867;SHT30;56451;44.804;20.476;2023-03-24T00:54:39;17.26;41.37
68867;SHT30;56451;44.804;20.476;2023-03-24T00:57:06;17.23;41.45
68867;SHT30;56451;44.804;20.476;2023-03-24T00:59:33;17.22;41.50
68867;SHT30;56451;44.804;20.476;2023-03-24T01:02:08;17.24;41.49
68867;SHT30;56451;44.804;20.476;2023-03-24T01:04:38;17.18;41.56
68867;SHT30;56451;44.804;20.476;2023-03-24T01:07:07;17.16;41.55
68867;SHT30;56451;44.804;20.476;2023-03-24T01:09:36;17.18;41.48
68867;SHT30;56451;44.804;20.476;2023-03-24T01:12:03;17.16;41.42
68867;SHT30;56451;44.804;20.476;2023-03-24T01:14:31;17.16;41.45
68867;SHT30;56451;44.804;20.476;2023-03-24T01:16:57;17.18;41.36
68867;SHT30;56451;44.804;20.476;2023-03-24T01:19:24;17.12;41.31
68867;SHT30;56451;44.804;20.476;2023-03-24T01:21:51;17.12;41.28
68867;SHT30;56451;44.804;20.476;2023-03-24T01:24:20;17.06;41.40
68867;SHT30;56451;44.804;20.476;2023-03-24T01:26:46;17.05;41.55
68867;SHT30;56451;44.804;20.476;2023-03-24T01:29:12;17.05;41.55
68867;SHT30;56451;44.804;20.476;2023-03-24T01:31:38;17.02;41.74
68867;SHT30;56451;44.804;20.476;2023-03-24T01:34:04;17.03;41.71
68867;SHT30;56451;44.804;20.476;2023-03-24T01:36:31;16.98;41.83
68867;SHT30;56451;44.804;20.476;2023-03-24T01:38:57;16.96;41.88
68867;SHT30;56451;44.804;20.476;2023-03-24T01:41:32;16.95;41.84
68867;SHT30;56451;44.804;20.476;2023-03-24T01:43:58;16.92;41.92
68867;SHT30;56451;44.804;20.476;2023-03-24T01:46:24;16.86;42.00
68867;SHT30;56451;44.804;20.476;2023-03-24T01:48:55;16.84;42.14
68867;SHT30;56451;44.804;20.476;2023-03-24T01:51:35;16.82;42.13
68867;SHT30;56451;44.804;20.476;2023-03-24T01:56:38;16.85;42.00
68867;SHT30;56451;44.804;20.476;2023-03-24T01:59:11;16.85;41.83
68867;SHT30;56451;44.804;20.476;2023-03-24T02:01:50;16.89;41.79
68867;SHT30;56451;44.804;20.476;2023-03-24T02:04:43;16.91;41.56
68867;SHT30;56451;44.804;20.476;2023-03-24T02:07:17;16.89;41.53
68867;SHT30;56451;44.804;20.476;2023-03-24T02:09:46;16.91;41.38
68867;SHT30;56451;44.804;20.476;2023-03-24T02:12:13;16.89;41.38
68867;SHT30;56451;44.804;20.476;2023-03-24T02:14:40;16.95;41.44
68867;SHT30;56451;44.804;20.476;2023-03-24T02:32:22;17.03;41.26
68867;SHT30;56451;44.804;20.476;2023-03-24T02:40:34;16.92;41.41
68867;SHT30;56451;44.804;20.476;2023-03-24T02:48:54;16.81;41.74
68867;SHT30;56451;44.804;20.476;2023-03-24T02:54:10;16.82;41.79
68867;SHT30;56451;44.804;20.476;2023-03-24T02:59:52;16.79;41.78
68867;SHT30;56451;44.804;20.476;2023-03-24T03:02:45;16.76;41.89
68867;SHT30;56451;44.804;20.476;2023-03-24T03:08:00;16.79;41.80
68867;SHT30;56451;44.804;20.476;2023-03-24T03:10:36;16.75;41.95
68867;SHT30;56451;44.804;20.476;2023-03-24T03:13:08;16.76;41.96
68867;SHT30;56451;44.804;20.476;2023-03-24T03:15:42;16.81;41.91
68867;SHT30;56451;44.804;20.476;2023-03-24T03:18:43;16.78;42.02
68867;SHT30;56451;44.804;20.476;2023-03-24T03:21:08;16.81;41.94
68867;SHT30;56451;44.804;20.476;2023-03-24T03:23:45;16.79;41.84
68867;SHT30;56451;44.804;20.476;2023-03-24T03:26:15;16.82;41.92
68867;SHT30;56451;44.804;20.476;2023-03-24T03:28:43;16.81;41.90
68867;SHT30;56451;44.804;20.476;2023-03-24T03:31:22;16.81;41.97
68867;SHT30;56451;44.804;20.476;2023-03-24T03:36:34;16.75;41.91
68867;SHT30;56451;44.804;20.476;2023-03-24T03:39:29;16.79;41.79
68867;SHT30;56451;44.804;20.476;2023-03-24T03:42:01;16.81;41.80
68867;SHT30;56451;44.804;20.476;2023-03-24T03:44:28;16.78;41.95
68867;SHT30;56451;44.804;20.476;2023-03-24T03:46:54;16.75;41.99
68867;SHT30;56451;44.804;20.476;2023-03-24T03:49:28;16.75;42.12
68867;SHT30;56451;44.804;20.476;2023-03-24T03:51:55;16.74;42.20
68867;SHT30;56451;44.804;20.476;2023-03-24T03:54:23;16.69;42.34
68867;SHT30;56451;44.804;20.476;2023-03-24T03:56:51;16.67;42.45
68867;SHT30;56451;44.804;20.476;2023-03-24T03:59:30;16.65;42.64
68867;SHT30;56451;44.804;20.476;2023-03-24T04:02:27;16.60;42.77
68867;SHT30;56451;44.804;20.476;2023-03-24T04:08:23;16.61;42.81
68867;SHT30;56451;44.804;20.476;2023-03-24T04:20:47;16.60;42.81
68867;SHT30;56451;44.804;20.476;2023-03-24T04:23:26;16.64;42.77
68867;SHT30;56451;44.804;20.476;2023-03-24T04:26:08;16.64;42.82
68867;SHT30;56451;44.804;20.476;2023-03-24T04:29:03;16.65;42.80
68867;SHT30;56451;44.804;20.476;2023-03-24T04:31:44;16.65;42.80
68867;SHT30;56451;44.804;20.476;2023-03-24T04:34:26;16.64;42.77
68867;SHT30;56451;44.804;20.476;2023-03-24T04:37:04;16.67;42.75
68867;SHT30;56451;44.804;20.476;2023-03-24T04:39:41;16.63;42.81
68867;SHT30;56451;44.804;20.476;2023-03-24T04:42:21;16.64;43.13
68867;SHT30;56451;44.804;20.476;2023-03-24T04:44:49;16.61;43.44
68867;SHT30;56451;44.804;20.476;2023-03-24T04:47:42;16.57;43.58
68867;SHT30;56451;44.804;20.476;2023-03-24T04:50:34;16.53;43.71
68867;SHT30;56451;44.804;20.476;2023-03-24T04:53:06;16.50;43.97
68867;SHT30;56451;44.804;20.476;2023-03-24T04:58:16;16.47;43.75
68867;SHT30;56451;44.804;20.476;2023-03-24T05:00:42;16.47;43.72
68867;SHT30;56451;44.804;20.476;2023-03-24T05:03:10;16.45;43.80
68867;SHT30;56451;44.804;20.476;2023-03-24T05:05:46;16.45;43.93
68867;SHT30;56451;44.804;20.476;2023-03-24T05:08:14;16.40;44.14
68867;SHT30;56451;44.804;20.476;2023-03-24T05:10:42;16.40;44.19
68867;SHT30;56451;44.804;20.476;2023-03-24T05:13:08;16.41;44.34
68867;SHT30;56451;44.804;20.476;2023-03-24T05:15:53;16.38;44.45
68867;SHT30;56451;44.804;20.476;2023-03-24T05:18:34;16.38;44.45
68867;SHT30;56451;44.804;20.476;2023-03-24T05:21:00;16.38;44.46
68867;SHT30;56451;44.804;20.476;2023-03-24T05:23:26;16.38;44.51
68867;SHT30;56451;44.804;20.476;2023-03-24T05:25:54;16.40;44.43
68867;SHT30;56451;44.804;20.476;2023-03-24T05:28:22;16.44;44.39
68867;SHT30;56451;44.804;20.476;2023-03-24T05:30:50;16.47;44.27
68867;SHT30;56451;44.804;20.476;2023-03-24T05:33:39;16.45;44.29
68867;SHT30;56451;44.804;20.476;2023-03-24T05:36:05;16.50;44.28
68867;SHT30;56451;44.804;20.476;2023-03-24T05:38:32;16.51;44.12
68867;SHT30;56451;44.804;20.476;2023-03-24T05:40:59;16.54;44.03
68867;SHT30;56451;44.804;20.476;2023-03-24T05:43:31;16.57;43.95
68867;SHT30;56451;44.804;20.476;2023-03-24T05:46:07;16.61;43.79
68867;SHT30;56451;44.804;20.476;2023-03-24T05:48:33;16.64;43.88
68867;SHT30;56451;44.804;20.476;2023-03-24T05:51:07;16.67;43.71
68867;SHT30;56451;44.804;20.476;2023-03-24T05:53:33;16.68;43.69
68867;SHT30;56451;44.804;20.476;2023-03-24T05:56:13;16.71;43.59
68867;SHT30;56451;44.804;20.476;2023-03-24T05:59:05;16.75;43.67
68867;SHT30;56451;44.804;20.476;2023-03-24T06:01:50;16.75;43.60
68867;SHT30;56451;44.804;20.476;2023-03-24T06:04:36;16.79;43.62
68867;SHT30;56451;44.804;20.476;2023-03-24T06:07:10;16.79;43.63
68867;SHT30;56451;44.804;20.476;2023-03-24T06:09:38;16.82;43.61
68867;SHT30;56451;44.804;20.476;2023-03-24T06:12:09;16.86;43.84
68867;SHT30;56451;44.804;20.476;2023-03-24T06:14:39;16.95;43.52
68867;SHT30;56451;44.804;20.476;2023-03-24T06:17:10;16.99;43.32
68867;SHT30;56451;44.804;20.476;2023-03-24T06:19:41;17.02;43.44
68867;SHT30;56451;44.804;20.476;2023-03-24T06:22:37;17.08;43.17
68867;SHT30;56451;44.804;20.476;2023-03-24T06:25:07;17.12;43.15
68867;SHT30;56451;44.804;20.476;2023-03-24T06:27:34;17.19;43.03
68867;SHT30;56451;44.804;20.476;2023-03-24T06:30:02;17.22;42.79
68867;SHT30;56451;44.804;20.476;2023-03-24T06:32:29;17.30;42.75
68867;SHT30;56451;44.804;20.476;2023-03-24T06:34:55;17.32;42.65
68867;SHT30;56451;44.804;20.476;2023-03-24T06:37:38;17.39;42.69
68867;SHT30;56451;44.804;20.476;2023-03-24T06:40:08;17.39;42.62
68867;SHT30;56451;44.804;20.476;2023-03-24T06:42:45;17.49;42.47
68867;SHT30;56451;44.804;20.476;2023-03-24T06:45:11;17.55;42.31
68867;SHT30;56451;44.804;20.476;2023-03-24T06:47:37;17.59;42.11
68867;SHT30;56451;44.804;20.476;2023-03-24T06:50:04;17.67;41.99
68867;SHT30;56451;44.804;20.476;2023-03-24T06:52:32;17.70;41.95
68867;SHT30;56451;44.804;20.476;2023-03-24T06:54:59;17.75;41.91
68867;SHT30;56451;44.804;20.476;2023-03-24T06:57:27;17.81;41.78
68867;SHT30;56451;44.804;20.476;2023-03-24T07:00:13;17.85;41.62
68867;SHT30;56451;44.804;20.476;2023-03-24T07:02:53;17.91;41.49
68867;SHT30;56451;44.804;20.476;2023-03-24T07:05:21;17.92;41.45
68867;SHT30;56451;44.804;20.476;2023-03-24T07:07:47;18.01;41.26
68867;SHT30;56451;44.804;20.476;2023-03-24T07:10:38;18.06;40.76
68867;SHT30;56451;44.804;20.476;2023-03-24T07:13:06;18.12;40.75
68867;SHT30;56451;44.804;20.476;2023-03-24T07:15:34;18.15;40.60
68867;SHT30;56451;44.804;20.476;2023-03-24T07:18:00;18.22;40.50
68867;SHT30;56451;44.804;20.476;2023-03-24T07:20:46;18.29;40.44
68867;SHT30;56451;44.804;20.476;2023-03-24T07:23:14;18.33;40.28
68867;SHT30;56451;44.804;20.476;2023-03-24T07:25:55;18.42;40.03
68867;SHT30;56451;44.804;20.476;2023-03-24T07:28:44;18.52;39.68
68867;SHT30;56451;44.804;20.476;2023-03-24T07:31:10;18.56;39.34
68867;SHT30;56451;44.804;20.476;2023-03-24T07:33:37;18.63;39.35
68867;SHT30;56451;44.804;20.476;2023-03-24T07:36:04;18.70;39.12
68867;SHT30;56451;44.804;20.476;2023-03-24T07:38:33;18.76;39.26
68867;SHT30;56451;44.804;20.476;2023-03-24T07:41:04;18.78;39.39
68867;SHT30;56451;44.804;20.476;2023-03-24T07:43:33;18.84;39.52
68867;SHT30;56451;44.804;20.476;2023-03-24T07:46:26;18.97;39.58
68867;SHT30;56451;44.804;20.476;2023-03-24T07:48:52;19.00;39.45
68867;SHT30;56451;44.804;20.476;2023-03-24T07:51:19;19.10;38.71
68867;SHT30;56451;44.804;20.476;2023-03-24T07:54:20;19.15;38.90
68867;SHT30;56451;44.804;20.476;2023-03-24T07:56:49;19.19;39.07
68867;SHT30;56451;44.804;20.476;2023-03-24T07:59:16;19.24;38.83
68867;SHT30;56451;44.804;20.476;2023-03-24T08:02:03;19.35;38.90
68867;SHT30;56451;44.804;20.476;2023-03-24T08:05:05;19.36;38.74
68867;SHT30;56451;44.804;20.476;2023-03-24T08:08:04;19.46;38.69
68867;SHT30;56451;44.804;20.476;2023-03-24T08:10:31;19.52;38.38
68867;SHT30;56451;44.804;20.476;2023-03-24T08:12:58;19.61;38.51
68867;SHT30;56451;44.804;20.476;2023-03-24T08:15:25;19.66;38.14
68867;SHT30;56451;44.804;20.476;2023-03-24T08:17:52;19.70;37.88
68867;SHT30;56451;44.804;20.476;2023-03-24T08:20:18;19.79;38.06
68867;SHT30;56451;44.804;20.476;2023-03-24T08:22:48;19.82;39.38
68867;SHT30;56451;44.804;20.476;2023-03-24T08:25:16;19.83;39.79
68867;SHT30;56451;44.804;20.476;2023-03-24T08:27:43;19.87;39.83
68867;SHT30;56451;44.804;20.476;2023-03-24T08:30:14;19.90;39.63
68867;SHT30;56451;44.804;20.476;2023-03-24T08:32:45;19.96;39.77
68867;SHT30;56451;44.804;20.476;2023-03-24T08:35:13;20.00;39.43
68867;SHT30;56451;44.804;20.476;2023-03-24T08:37:41;20.03;39.54
68867;SHT30;56451;44.804;20.476;2023-03-24T08:40:09;20.03;39.36
68867;SHT30;56451;44.804;20.476;2023-03-24T08:42:40;20.09;39.13
68867;SHT30;56451;44.804;20.476;2023-03-24T08:45:07;20.12;39.20
68867;SHT30;56451;44.804;20.476;2023-03-24T08:47:35;20.14;38.80
68867;SHT30;56451;44.804;20.476;2023-03-24T08:50:01;20.16;38.69
68867;SHT30;56451;44.804;20.476;2023-03-24T08:52:27;20.13;38.74
68867;SHT30;56451;44.804;20.476;2023-03-24T08:54:53;20.10;38.74
68867;SHT30;56451;44.804;20.476;2023-03-24T08:57:19;20.13;38.45
68867;SHT30;56451;44.804;20.476;2023-03-24T08:59:46;20.06;38.56
68867;SHT30;56451;44.804;20.476;2023-03-24T09:02:12;20.06;38.48
68867;SHT30;56451;44.804;20.476;2023-03-24T09:04:38;20.01;38.77
68867;SHT30;56451;44.804;20.476;2023-03-24T09:07:04;19.98;38.65
68867;SHT30;56451;44.804;20.476;2023-03-24T09:09:32;19.97;38.58
68867;SHT30;56451;44.804;20.476;2023-03-24T09:11:58;19.94;38.88
68867;SHT30;56451;44.804;20.476;2023-03-24T09:14:24;20.01;38.89
68867;SHT30;56451;44.804;20.476;2023-03-24T09:16:50;20.01;38.76
68867;SHT30;56451;44.804;20.476;2023-03-24T09:19:16;20.09;38.88
68867;SHT30;56451;44.804;20.476;2023-03-24T09:21:46;20.16;38.53
68867;SHT30;56451;44.804;20.476;2023-03-24T09:24:12;20.24;38.44
68867;SHT30;56451;44.804;20.476;2023-03-24T09:26:38;20.34;38.27
68867;SHT30;56451;44.804;20.476;2023-03-24T09:29:05;20.42;38.24
68867;SHT30;56451;44.804;20.476;2023-03-24T09:31:31;20.48;38.31
68867;SHT30;56451;44.804;20.476;2023-03-24T09:33:57;20.58;38.15
68867;SHT30;56451;44.804;20.476;2023-03-24T09:36:24;20.68;37.37
68867;SHT30;56451;44.804;20.476;2023-03-24T09:38:50;20.72;37.63
68867;SHT30;56451;44.804;20.476;2023-03-24T09:41:20;20.82;37.15
68867;SHT30;56451;44.804;20.476;2023-03-24T09:43:48;20.88;36.80
68867;SHT30;56451;44.804;20.476;2023-03-24T09:46:27;20.96;36.85
68867;SHT30;56451;44.804;20.476;2023-03-24T09:48:56;21.06;36.34
68867;SHT30;56451;44.804;20.476;2023-03-24T09:51:24;21.11;36.17
68867;SHT30;56451;44.804;20.476;2023-03-24T09:53:59;21.22;36.53
68867;SHT30;56451;44.804;20.476;2023-03-24T09:56:28;21.30;36.77
68867;SHT30;56451;44.804;20.476;2023-03-24T09:59:15;21.39;35.27
68867;SHT30;56451;44.804;20.476;2023-03-24T10:01:42;21.47;36.15
68867;SHT30;56451;44.804;20.476;2023-03-24T10:04:16;21.54;36.48
68867;SHT30;56451;44.804;20.476;2023-03-24T10:06:43;21.61;36.83
68867;SHT30;56451;44.804;20.476;2023-03-24T10:14:54;21.79;36.71
68867;SHT30;56451;44.804;20.476;2023-03-24T10:20:30;21.91;36.25
68867;SHT30;56451;44.804;20.476;2023-03-24T10:23:32;21.89;36.15
68867;SHT30;56451;44.804;20.476;2023-03-24T10:26:26;21.88;35.90
68867;SHT30;56451;44.804;20.476;2023-03-24T10:31:28;21.91;36.01
68867;SHT30;56451;44.804;20.476;2023-03-24T10:33:55;21.98;35.88
68867;SHT30;56451;44.804;20.476;2023-03-24T10:36:22;22.05;35.43
68867;SHT30;56451;44.804;20.476;2023-03-24T10:38:50;22.10;35.31
68867;SHT30;56451;44.804;20.476;2023-03-24T10:41:21;22.19;34.95
68867;SHT30;56451;44.804;20.476;2023-03-24T10:43:49;22.20;34.78
68867;SHT30;56451;44.804;20.476;2023-03-24T10:46:27;22.26;34.68
68867;SHT30;56451;44.804;20.476;2023-03-24T10:49:16;22.36;34.76
68867;SHT30;56451;44.804;20.476;2023-03-24T10:51:54;22.43;34.68
68867;SHT30;56451;44.804;20.476;2023-03-24T10:54:26;22.52;34.61
68867;SHT30;56451;44.804;20.476;2023-03-24T11:04:36;22.67;34.08
68867;SHT30;56451;44.804;20.476;2023-03-24T11:09:44;22.77;33.92
68867;SHT30;56451;44.804;20.476;2023-03-24T11:12:21;22.81;33.78
68867;SHT30;56451;44.804;20.476;2023-03-24T11:14:48;22.84;33.87
68867;SHT30;56451;44.804;20.476;2023-03-24T11:17:15;22.91;33.65
68867;SHT30;56451;44.804;20.476;2023-03-24T11:19:57;23.00;33.43
68867;SHT30;56451;44.804;20.476;2023-03-24T11:22:23;23.01;33.38
68867;SHT30;56451;44.804;20.476;2023-03-24T11:24:54;23.04;33.21
68867;SHT30;56451;44.804;20.476;2023-03-24T11:27:21;23.12;33.22
68867;SHT30;56451;44.804;20.476;2023-03-24T11:29:50;23.19;33.05
68867;SHT30;56451;44.804;20.476;2023-03-24T11:32:25;23.33;32.48
68867;SHT30;56451;44.804;20.476;2023-03-24T11:35:18;23.39;32.46
68867;SHT30;56451;44.804;20.476;2023-03-24T11:37:44;23.45;32.32
68867;SHT30;56451;44.804;20.476;2023-03-24T11:42:42;23.58;32.04
68867;SHT30;56451;44.804;20.476;2023-03-24T11:45:33;23.60;31.78
68867;SHT30;56451;44.804;20.476;2023-03-24T11:48:01;23.65;31.89
68867;SHT30;56451;44.804;20.476;2023-03-24T11:50:32;23.62;31.60
68867;SHT30;56451;44.804;20.476;2023-03-24T11:53:02;23.65;31.81
68867;SHT30;56451;44.804;20.476;2023-03-24T11:55:53;23.74;31.80
68867;SHT30;56451;44.804;20.476;2023-03-24T12:03:51;23.90;31.50
68867;SHT30;56451;44.804;20.476;2023-03-24T12:06:46;23.99;31.56
68867;SHT30;56451;44.804;20.476;2023-03-24T12:23:42;24.20;31.02
68867;SHT30;56451;44.804;20.476;2023-03-24T12:26:28;24.29;31.06
68867;SHT30;56451;44.804;20.476;2023-03-24T12:31:40;24.39;30.79
68867;SHT30;56451;44.804;20.476;2023-03-24T12:37:06;24.42;30.86
68867;SHT30;56451;44.804;20.476;2023-03-24T12:39:43;24.49;30.83
68867;SHT30;56451;44.804;20.476;2023-03-24T12:42:18;24.49;30.64
68867;SHT30;56451;44.804;20.476;2023-03-24T12:56:04;24.86;30.15
68867;SHT30;56451;44.804;20.476;2023-03-24T13:01:16;24.96;29.73
68867;SHT30;56451;44.804;20.476;2023-03-24T13:06:54;25.02;29.99
68867;SHT30;56451;44.804;20.476;2023-03-24T13:09:35;25.09;29.65
68867;SHT30;56451;44.804;20.476;2023-03-24T13:12:11;25.09;29.68
68867;SHT30;56451;44.804;20.476;2023-03-24T13:20:13;25.30;29.73
68867;SHT30;56451;44.804;20.476;2023-03-24T13:22:40;25.41;28.88
68867;SHT30;56451;44.804;20.476;2023-03-24T13:25:40;25.47;29.10
68867;SHT30;56451;44.804;20.476;2023-03-24T13:28:11;25.57;29.34
68867;SHT30;56451;44.804;20.476;2023-03-24T13:30:40;25.61;29.22
68867;SHT30;56451;44.804;20.476;2023-03-24T13:33:20;25.71;29.29
68867;SHT30;56451;44.804;20.476;2023-03-24T13:40:58;25.75;28.42
68867;SHT30;56451;44.804;20.476;2023-03-24T13:43:32;25.81;28.26
68867;SHT30;56451;44.804;20.476;2023-03-24T13:46:06;25.88;27.94
68867;SHT30;56451;44.804;20.476;2023-03-24T13:48:40;25.89;27.95
68867;SHT30;56451;44.804;20.476;2023-03-24T13:53:57;26.06;27.56
68867;SHT30;56451;44.804;20.476;2023-03-24T14:04:28;26.41;27.86
68867;SHT30;56451;44.804;20.476;2023-03-24T14:25:57;27.07;26.76
68867;SHT30;56451;44.804;20.476;2023-03-24T14:28:39;27.09;26.90
68867;SHT30;56451;44.804;20.476;2023-03-24T14:36:38;27.36;26.16
68867;SHT30;56451;44.804;20.476;2023-03-24T14:39:32;27.47;26.01
68867;SHT30;56451;44.804;20.476;2023-03-24T14:45:00;27.69;25.53
68867;SHT30;56451;44.804;20.476;2023-03-24T14:47:37;27.74;25.36
68867;SHT30;56451;44.804;20.476;2023-03-24T14:50:21;27.74;25.43
68867;SHT30;56451;44.804;20.476;2023-03-24T14:52:51;27.79;25.27
68867;SHT30;56451;44.804;20.476;2023-03-24T14:55:18;27.80;25.36
68867;SHT30;56451;44.804;20.476;2023-03-24T14:57:50;27.74;25.24
68867;SHT30;56451;44.804;20.476;2023-03-24T15:02:48;27.71;25.45
68867;SHT30;56451;44.804;20.476;2023-03-24T15:08:12;27.77;25.28
68867;SHT30;56451;44.804;20.476;2023-03-24T15:13:48;27.77;25.07
68867;SHT30;56451;44.804;20.476;2023-03-24T15:16:17;27.76;25.20
68867;SHT30;56451;44.804;20.476;2023-03-24T15:18:57;27.74;25.31
68867;SHT30;56451;44.804;20.476;2023-03-24T15:21:28;27.73;25.34
68867;SHT30;56451;44.804;20.476;2023-03-24T15:23:55;27.73;25.36
68867;SHT30;56451;44.804;20.476;2023-03-24T15:26:23;27.74;25.37
68867;SHT30;56451;44.804;20.476;2023-03-24T15:29:11;27.73;25.43
68867;SHT30;56451;44.804;20.476;2023-03-24T15:31:37;27.73;25.58
68867;SHT30;56451;44.804;20.476;2023-03-24T15:34:28;27.71;25.48
68867;SHT30;56451;44.804;20.476;2023-03-24T15:36:59;27.70;25.63
68867;SHT30;56451;44.804;20.476;2023-03-24T15:39:36;27.67;25.63
68867;SHT30;56451;44.804;20.476;2023-03-24T15:42:13;27.63;25.56
68867;SHT30;56451;44.804;20.476;2023-03-24T15:44:42;27.62;25.64
68867;SHT30;56451;44.804;20.476;2023-03-24T15:47:19;27.62;25.73
68867;SHT30;56451;44.804;20.476;2023-03-24T15:49:49;27.56;25.75
68867;SHT30;56451;44.804;20.476;2023-03-24T15:54:51;27.52;25.92
68867;SHT30;56451;44.804;20.476;2023-03-24T15:57:22;27.55;25.82
68867;SHT30;56451;44.804;20.476;2023-03-24T16:02:40;27.49;25.90
68867;SHT30;56451;44.804;20.476;2023-03-24T16:05:24;27.41;26.01
68867;SHT30;56451;44.804;20.476;2023-03-24T16:07:59;27.34;26.02
68867;SHT30;56451;44.804;20.476;2023-03-24T16:13:16;27.26;26.23
68867;SHT30;56451;44.804;20.476;2023-03-24T16:15:58;27.21;26.38
68867;SHT30;56451;44.804;20.476;2023-03-24T16:18:35;27.21;26.40
68867;SHT30;56451;44.804;20.476;2023-03-24T16:21:10;27.11;26.54
68867;SHT30;56451;44.804;20.476;2023-03-24T16:23:37;26.99;26.71
68867;SHT30;56451;44.804;20.476;2023-03-24T16:26:05;26.91;26.86
68867;SHT30;56451;44.804;20.476;2023-03-24T16:28:33;26.80;26.97
68867;SHT30;56451;44.804;20.476;2023-03-24T16:31:02;26.71;27.07
68867;SHT30;56451;44.804;20.476;2023-03-24T16:33:29;26.61;27.18
68867;SHT30;56451;44.804;20.476;2023-03-24T16:35:58;26.56;27.41
68867;SHT30;56451;44.804;20.476;2023-03-24T16:38:25;26.47;27.58
68867;SHT30;56451;44.804;20.476;2023-03-24T16:40:53;26.36;27.72
68867;SHT30;56451;44.804;20.476;2023-03-24T16:43:21;26.25;27.83
68867;SHT30;56451;44.804;20.476;2023-03-24T16:45:48;26.13;28.02
68867;SHT30;56451;44.804;20.476;2023-03-24T16:48:15;26.01;28.14
68867;SHT30;56451;44.804;20.476;2023-03-24T16:50:44;25.85;28.49
68867;SHT30;56451;44.804;20.476;2023-03-24T16:53:10;25.70;28.65
68867;SHT30;56451;44.804;20.476;2023-03-24T16:55:38;25.60;28.87
68867;SHT30;56451;44.804;20.476;2023-03-24T16:58:06;25.45;29.05
68867;SHT30;56451;44.804;20.476;2023-03-24T17:00:34;25.34;29.23
68867;SHT30;56451;44.804;20.476;2023-03-24T17:03:02;25.20;29.51
68867;SHT30;56451;44.804;20.476;2023-03-24T17:05:36;25.07;29.74
68867;SHT30;56451;44.804;20.476;2023-03-24T17:08:03;25.00;29.87
68867;SHT30;56451;44.804;20.476;2023-03-24T17:10:30;24.90;29.96
68867;SHT30;56451;44.804;20.476;2023-03-24T17:12:56;24.78;30.23
68867;SHT30;56451;44.804;20.476;2023-03-24T17:15:24;24.68;30.39
68867;SHT30;56451;44.804;20.476;2023-03-24T17:17:51;24.55;30.46
68867;SHT30;56451;44.804;20.476;2023-03-24T17:20:17;24.51;30.63
68867;SHT30;56451;44.804;20.476;2023-03-24T17:22:44;24.42;30.78
68867;SHT30;56451;44.804;20.476;2023-03-24T17:25:13;24.35;30.94
68867;SHT30;56451;44.804;20.476;2023-03-24T17:27:39;24.25;31.09
68867;SHT30;56451;44.804;20.476;2023-03-24T17:30:06;24.20;31.08
68867;SHT30;56451;44.804;20.476;2023-03-24T17:32:34;24.10;31.27
68867;SHT30;56451;44.804;20.476;2023-03-24T17:35:00;24.06;31.33
68867;SHT30;56451;44.804;20.476;2023-03-24T17:37:30;23.99;31.41
68867;SHT30;56451;44.804;20.476;2023-03-24T17:39:56;23.93;31.50
68867;SHT30;56451;44.804;20.476;2023-03-24T17:42:24;23.92;31.66
68867;SHT30;56451;44.804;20.476;2023-03-24T17:44:51;23.81;31.86
68867;SHT30;56451;44.804;20.476;2023-03-24T17:47:17;23.74;31.97
68867;SHT30;56451;44.804;20.476;2023-03-24T17:49:43;23.67;32.01
68867;SHT30;56451;44.804;20.476;2023-03-24T17:52:09;23.67;32.09
68867;SHT30;56451;44.804;20.476;2023-03-24T17:54:35;23.58;32.23
68867;SHT30;56451;44.804;20.476;2023-03-24T17:57:01;23.52;32.36
68867;SHT30;56451;44.804;20.476;2023-03-24T17:59:27;23.52;32.44
68867;SHT30;56451;44.804;20.476;2023-03-24T18:01:53;23.48;32.61
68867;SHT30;56451;44.804;20.476;2023-03-24T18:04:19;23.39;32.65
68867;SHT30;56451;44.804;20.476;2023-03-24T18:06:46;23.33;32.75
68867;SHT30;56451;44.804;20.476;2023-03-24T18:09:12;23.28;32.78
68867;SHT30;56451;44.804;20.476;2023-03-24T18:11:38;23.23;32.87
68867;SHT30;56451;44.804;20.476;2023-03-24T18:14:04;23.18;32.94
68867;SHT30;56451;44.804;20.476;2023-03-24T18:16:30;23.15;32.93
68867;SHT30;56451;44.804;20.476;2023-03-24T18:18:59;23.12;33.08
68867;SHT30;56451;44.804;20.476;2023-03-24T18:21:26;23.08;33.21
68867;SHT30;56451;44.804;20.476;2023-03-24T18:23:53;23.02;33.30
68867;SHT30;56451;44.804;20.476;2023-03-24T18:26:19;23.02;33.19
68867;SHT30;56451;44.804;20.476;2023-03-24T18:28:47;22.95;33.23
68867;SHT30;56451;44.804;20.476;2023-03-24T18:31:15;22.95;33.32
68867;SHT30;56451;44.804;20.476;2023-03-24T18:33:43;22.90;33.26
68867;SHT30;56451;44.804;20.476;2023-03-24T18:36:11;22.83;33.30
68867;SHT30;56451;44.804;20.476;2023-03-24T18:38:38;22.81;33.21
68867;SHT30;56451;44.804;20.476;2023-03-24T18:41:06;22.74;33.23
68867;SHT30;56451;44.804;20.476;2023-03-24T18:43:35;22.71;33.26
68867;SHT30;56451;44.804;20.476;2023-03-24T18:46:06;22.67;33.19
68867;SHT30;56451;44.804;20.476;2023-03-24T18:48:36;22.71;33.01
68867;SHT30;56451;44.804;20.476;2023-03-24T18:51:02;22.67;33.09